Nearby METAR Reports

 

KDLZ - Delaware, Ohio, USA
Distance from station: SW 3mi, 5km
Updated: Wed, 05-Aug-2020 11:55am EDT
Clear
Clear
 Wind from calm
Wind: Calm
Temperature: 68°F , 20°C
Dew Point: 54°F , 12°C
Humidity: 60%
Barometer: 30.15 inHg , 1021 hPa
Clouds: Clear
Visibility: 10 miles , 16 km
2020/08/05 15:55 KDLZ 051555Z AUTO 00000KT 10SM CLR 20/12 A3015 RMK AO2
KOSU - Columbus/St Univ, Ohio, USA
Distance from station: S 16mi, 25km
Updated: Wed, 05-Aug-2020 11:53am EDT
Few Clouds
Few Clouds
 Wind from varies
Wind: varies 5 mph , 7 km/h
Temperature: 70°F , 21°C
Dew Point: 54°F , 12°C
Humidity: 57%
Barometer: 30.14 inHg , 1020.7 hPa
Clouds: Few Clouds
Visibility: 10 miles , 16 km
Cloud details: Few Clouds 4000 ft
2020/08/05 15:53 KOSU 051553Z VRB04KT 10SM FEW040 21/12 A3014 RMK AO2 SLP202 T02110117
 
KMRT - Marysville, Ohio, USA
Distance from station: WSW 16mi, 26km
Updated: Wed, 05-Aug-2020 11:39am EDT
Clear
Clear
 Wind from SW
Wind: SW 5 mph , 7 km/h
Temperature: 68°F , 20°C
Dew Point: 54°F , 12°C
Humidity: 60%
Barometer: 30.15 inHg , 1021 hPa
Clouds: Clear
Visibility: 10 miles , 16 km
2020/08/05 15:39 KMRT 051539Z AUTO 22004KT 10SM CLR 20/12 A3015 RMK AO1
KMNN - Marion, Ohio, USA
Distance from station: N 21mi, 34km
Updated: Wed, 05-Aug-2020 11:53am EDT
Clear
Clear
 Wind from calm
Wind: Calm
Temperature: 68°F , 20°C
Dew Point: 54°F , 12°C
Humidity: 60%
Barometer: 30.15 inHg , 1021 hPa
Clouds: Clear
Visibility: 10 miles , 16 km
2020/08/05 15:53 KMNN 051553Z AUTO 00000KT 10SM CLR 20/12 A3015 RMK AO2 SLP207 T02000117
 
KCMH - Columbus, Ohio, USA
Distance from station: SSE 24mi, 38km
Updated: Wed, 05-Aug-2020 11:51am EDT
Few Clouds
Few Clouds
 Wind from NNW
Wind: NNW 5 mph , 7 km/h
Temperature: 72°F , 22°C
Dew Point: 54°F , 12°C
Humidity: 53%
Barometer: 30.13 inHg , 1020.3 hPa
Clouds: Few Clouds
Visibility: 10 miles , 16 km
Cloud details: Few Clouds 3800 ft
2020/08/05 15:51 KCMH 051551Z 33004KT 10SM FEW038 22/12 A3013 RMK AO2 SLP199 T02220117
K4I3 - Mt Vernon/Knox, Ohio, USA
Distance from station: E 29mi, 46km
Updated: Wed, 05-Aug-2020 11:55am EDT
Clear
Clear
 Wind from WSW
Wind: WSW 3 mph , 6 km/h
Temperature: 70°F , 21°C
Dew Point: 54°F , 12°C
Humidity: 57%
Barometer: 30.16 inHg , 1021.3 hPa
Clouds: Clear
Visibility: 10 miles , 16 km
2020/08/05 15:55 K4I3 051555Z AUTO 25003KT 10SM CLR 21/12 A3016 RMK AO2
 
KTZR - Columbus/Bolton, Ohio, USA
Distance from station: S 29mi, 46km
Updated: Wed, 05-Aug-2020 11:47am EDT
Clear
Clear
 Wind from WSW
Wind: WSW 3 mph , 6 km/h
Temperature: 70°F , 21°C
Dew Point: 55°F , 13°C
Humidity: 60%
Barometer: 30.15 inHg , 1021 hPa
Clouds: Clear
Visibility: 10 miles , 16 km
2020/08/05 15:47 KTZR 051547Z 24003KT 10SM SKC 21/13 A3015
KUYF - London, Ohio, USA
Distance from station: SW 33mi, 54km
Updated: Wed, 05-Aug-2020 11:55am EDT
Clear
Clear
 Wind from W
Wind: W 5 mph , 7 km/h
Temperature: 70°F , 21°C
Dew Point: 52°F , 11°C
Humidity: 53%
Barometer: 30.15 inHg , 1021 hPa
Clouds: Clear
Visibility: 10 miles , 16 km
2020/08/05 15:55 KUYF 051555Z AUTO 28004KT 10SM CLR 21/11 A3015 RMK AO2
 
KLCK - Rickenbacker Ang, Ohio, USA
Distance from station: SSE 35mi, 57km
Updated: Wed, 05-Aug-2020 11:55am EDT
Clear
Clear
 Wind from calm
Wind: Calm
Temperature: 70°F , 21°C
Dew Point: 54°F , 12°C
Humidity: 57%
Barometer: 30.14 inHg , 1020.7 hPa
Clouds: Clear
Visibility: 10 miles , 16 km
2020/08/05 15:55 KLCK 051555Z AUTO 00000KT 10SM CLR 21/12 A3014 RMK AO2 T02090116
KVTA - Newark, Ohio, USA
Distance from station: ESE 38mi, 61km
Updated: Wed, 05-Aug-2020 11:54am EDT
Few Clouds
Few Clouds
 Wind from calm
Wind: Calm
Temperature: 73°F , 23°C
Dew Point: 55°F , 13°C
Humidity: 53%
Barometer: 30.13 inHg , 1020.3 hPa
Clouds: Few Clouds
Visibility: 10 miles , 16 km
Cloud details: Few Clouds 4000 ft
2020/08/05 15:54 KVTA 051554Z AUTO 00000KT 10SM FEW040 23/13 A3013 RMK AO2 SLP198 T02280128
 
KEDJ - Bellefontaine, Ohio, USA
Distance from station: W 39mi, 63km
Updated: Wed, 05-Aug-2020 11:55am EDT
Clear
Clear
 Wind from W
Wind: W 9 mph , 15 km/h
Temperature: 64°F , 18°C
Dew Point: 55°F , 13°C
Humidity: 73%
Barometer: 30.16 inHg , 1021.3 hPa
Clouds: Clear
Visibility: 10 miles , 16 km
2020/08/05 15:55 KEDJ 051555Z AUTO 27008KT 10SM CLR 18/13 A3016 RMK AO1
KLHQ - Lancaster, Ohio, USA
Distance from station: SSE 44mi, 71km
Updated: Wed, 05-Aug-2020 11:53am EDT
Clear
Clear
 Wind from varies
Wind: varies 3 mph , 6 km/h
Temperature: 72°F , 22°C
Dew Point: 55°F , 13°C
Humidity: 57%
Barometer: 30.14 inHg , 1020.7 hPa
Clouds: Clear
Visibility: 10 miles , 16 km
2020/08/05 15:53 KLHQ 051553Z AUTO VRB03KT 10SM CLR 22/13 A3014 RMK AO2 SLP202 T02220128
 
KMFD - Mansfield, Ohio, USA
Distance from station: NE 46mi, 73km
Updated: Wed, 05-Aug-2020 11:52am EDT
Clear
Clear
 Wind from varies
Wind: varies 3 mph , 6 km/h
Temperature: 70°F , 21°C
Dew Point: 54°F , 12°C
Humidity: 57%
Barometer: 30.14 inHg , 1020.7 hPa
Clouds: Clear
Visibility: 10 miles , 16 km
2020/08/05 15:52 KMFD 051552Z VRB03KT 10SM CLR 21/12 A3014 RMK AO2 SLP203 T02060117
KSGH - Springfield Muni, Ohio, USA
Distance from station: SW 52mi, 84km
Updated: Wed, 05-Aug-2020 11:56am EDT
Clear
Clear
 Wind from W
Wind: W 7 mph , 11 km/h
Temperature: 70°F , 21°C
Dew Point: 55°F , 13°C
Humidity: 60%
Barometer: 30.15 inHg , 1021 hPa
Clouds: Clear
Visibility: 10 miles , 16 km
2020/08/05 15:56 KSGH 051556Z AUTO 27006KT 10SM CLR 21/13 A3015 RMK AO2 SLP209 T02060128 PNO $
 
KI23 - Washington Court, Ohio, USA
Distance from station: SSW 55mi, 88km
Updated: Wed, 05-Aug-2020 12:15pm EDT
Partly cloudy
Partly cloudy
 Wind from calm
Wind: Calm
Temperature: 70°F , 21°C
Dew Point: 55°F , 13°C
Humidity: 60%
Barometer: 30.14 inHg , 1020.7 hPa
Clouds: Partly cloudy
Visibility: 10 miles , 16 km
Cloud details: Partly cloudy 3100 ft
2020/08/05 16:15 KI23 051615Z AUTO 00000KT 10SM SCT031 21/13 A3014 RMK AO1
KAOH - Lima, Ohio, USA
Distance from station: WNW 56mi, 91km
Updated: Wed, 05-Aug-2020 11:53am EDT
Clear
Clear
 Wind from varies
Wind: varies 5 mph , 7 km/h
Temperature: 68°F , 20°C
Dew Point: 54°F , 12°C
Humidity: 60%
Barometer: 30.14 inHg , 1020.7 hPa
Clouds: Clear
Visibility: 10 miles , 16 km
2020/08/05 15:53 KAOH 051553Z AUTO VRB04KT 10SM CLR 20/12 A3014 RMK AO2 SLP203 T02000117
 
KFDY - Findlay, Ohio, USA
Distance from station: NNW 58mi, 93km
Updated: Wed, 05-Aug-2020 11:53am EDT
Clear
Clear
 Wind from varies
Wind: varies 6 mph , 9 km/h
Temperature: 70°F , 21°C
Dew Point: 54°F , 12°C
Humidity: 57%
Barometer: 30.13 inHg , 1020.3 hPa
Clouds: Clear
Visibility: 10 miles , 16 km
2020/08/05 15:53 KFDY 051553Z AUTO VRB05KT 10SM CLR 21/12 A3013 RMK AO2 SLP197 T02110122
KFFO - Wright Paterson, Ohio, USA
Distance from station: SW 61mi, 98km
Updated: Wed, 05-Aug-2020 11:56am EDT
Few Clouds
Few Clouds
 Wind from WNW
Wind: WNW 5 mph , 7 km/h
Temperature: 70°F , 21°C
Dew Point: 50°F , 10°C
Humidity: 50%
Barometer: 30.14 inHg , 1020.7 hPa
Clouds: Few Clouds
Visibility: 10 miles , 16 km
Cloud details: Few Clouds 4000 ft
Few Clouds 25000 ft
2020/08/05 15:56 KFFO 051556Z 30004KT 10SM FEW040 FEW250 21/10 A3014 RMK AO2A SLP206 T02090095
 
KRZT - Chillicothe, Ohio, USA
Distance from station: S 61mi, 98km
Updated: Wed, 05-Aug-2020 12:15pm EDT
Clear
Clear
 Wind from N
Wind: N 3 mph , 6 km/h
Temperature: 72°F , 22°C
Dew Point: 54°F , 12°C
Humidity: 53%
Barometer: 30.14 inHg , 1020.7 hPa
Clouds: Clear
Visibility: 10 miles , 16 km
2020/08/05 16:15 KRZT 051615Z AUTO 01003KT 10SM CLR 22/12 A3014 RMK AO2 PWINO
KI19 - Dayton-Jackson, Ohio, USA
Distance from station: SW 65mi, 105km
Updated: Wed, 05-Aug-2020 11:55am EDT
Clear
Clear
 Wind from NNE
Wind: NNE 5 mph , 7 km/h
Temperature: 70°F , 21°C
Dew Point: 50°F , 10°C
Humidity: 50%
Barometer: 30.16 inHg , 1021.3 hPa
Clouds: Clear
Visibility: 10 miles , 16 km
2020/08/05 15:55 KI19 051555Z AUTO 03004KT 10SM CLR 21/10 A3016 RMK AO2 T02100104